Terminal Aerodrome Forecast
Issued by NWS

Home | Current Version | Previous Version | Text Only | Print | Product List | Glossary On
Versions: 1 2 3 4 5 6 7 8 9 10 11 12 13 14 15 16 17 18 19 20 21 22 23 24 25 26 27 28 29 30 31 32 33 34 35 36 37
820
FTUS43 KDMX 311139
TAFOTM
TAF
KOTM 311139Z 3112/0112 17007KT P6SM BKN110
     FM312200 18007KT 5SM -TSRA BKN035CB
     FM010400 24005KT P6SM SCT035 BKN200
     FM011000 VRB03KT 5SM BR FEW250=

USA.gov is the U.S. government's official web portal to all federal, state and local government web resources and services.